sensor_id;sensor_type;location;lat;lon;timestamp;P1;durP1;ratioP1;P2;durP2;ratioP2
19278;SDS011;9773;47.062;15.446;2023-05-23T00:00:15;7.07;;;5.93;;
19278;SDS011;9773;47.062;15.446;2023-05-23T00:02:42;5.90;;;5.40;;
19278;SDS011;9773;47.062;15.446;2023-05-23T00:05:14;6.53;;;5.90;;
19278;SDS011;9773;47.062;15.446;2023-05-23T00:07:42;5.97;;;5.40;;
19278;SDS011;9773;47.062;15.446;2023-05-23T00:10:13;6.23;;;5.63;;
19278;SDS011;9773;47.062;15.446;2023-05-23T00:12:40;5.93;;;5.43;;
19278;SDS011;9773;47.062;15.446;2023-05-23T00:15:07;5.43;;;5.00;;
19278;SDS011;9773;47.062;15.446;2023-05-23T00:17:34;5.80;;;5.30;;
19278;SDS011;9773;47.062;15.446;2023-05-23T00:20:02;6.63;;;5.53;;
19278;SDS011;9773;47.062;15.446;2023-05-23T00:22:29;6.30;;;5.70;;
19278;SDS011;9773;47.062;15.446;2023-05-23T00:24:54;6.13;;;5.53;;
19278;SDS011;9773;47.062;15.446;2023-05-23T00:27:23;6.40;;;5.80;;
19278;SDS011;9773;47.062;15.446;2023-05-23T00:29:49;6.10;;;5.50;;
19278;SDS011;9773;47.062;15.446;2023-05-23T00:32:14;7.20;;;5.33;;
19278;SDS011;9773;47.062;15.446;2023-05-23T00:34:40;6.90;;;5.70;;
19278;SDS011;9773;47.062;15.446;2023-05-23T00:37:06;6.17;;;5.67;;
19278;SDS011;9773;47.062;15.446;2023-05-23T00:39:32;6.10;;;5.57;;
19278;SDS011;9773;47.062;15.446;2023-05-23T00:41:58;6.37;;;5.77;;
19278;SDS011;9773;47.062;15.446;2023-05-23T00:44:28;6.07;;;5.50;;
19278;SDS011;9773;47.062;15.446;2023-05-23T00:46:55;6.03;;;5.20;;
19278;SDS011;9773;47.062;15.446;2023-05-23T00:49:22;6.23;;;5.57;;
19278;SDS011;9773;47.062;15.446;2023-05-23T00:51:49;5.93;;;5.53;;
19278;SDS011;9773;47.062;15.446;2023-05-23T00:54:25;5.97;;;5.47;;
19278;SDS011;9773;47.062;15.446;2023-05-23T00:56:55;6.70;;;6.07;;
19278;SDS011;9773;47.062;15.446;2023-05-23T00:59:21;8.93;;;5.77;;
19278;SDS011;9773;47.062;15.446;2023-05-23T01:01:49;7.43;;;5.83;;
19278;SDS011;9773;47.062;15.446;2023-05-23T01:04:20;8.23;;;5.90;;
19278;SDS011;9773;47.062;15.446;2023-05-23T01:06:54;6.57;;;5.97;;
19278;SDS011;9773;47.062;15.446;2023-05-23T01:09:26;6.23;;;5.73;;
19278;SDS011;9773;47.062;15.446;2023-05-23T01:12:19;5.90;;;5.40;;
19278;SDS011;9773;47.062;15.446;2023-05-23T01:18:26;6.20;;;5.57;;
19278;SDS011;9773;47.062;15.446;2023-05-23T01:21:17;7.23;;;5.47;;
19278;SDS011;9773;47.062;15.446;2023-05-23T01:27:10;5.83;;;5.30;;
19278;SDS011;9773;47.062;15.446;2023-05-23T01:30:03;6.00;;;5.50;;
19278;SDS011;9773;47.062;15.446;2023-05-23T01:32:32;6.17;;;5.67;;
19278;SDS011;9773;47.062;15.446;2023-05-23T01:34:59;6.97;;;5.70;;
19278;SDS011;9773;47.062;15.446;2023-05-23T01:37:25;8.27;;;5.47;;
19278;SDS011;9773;47.062;15.446;2023-05-23T01:39:54;5.97;;;5.40;;
19278;SDS011;9773;47.062;15.446;2023-05-23T01:42:21;6.03;;;5.43;;
19278;SDS011;9773;47.062;15.446;2023-05-23T01:44:47;6.00;;;5.50;;
19278;SDS011;9773;47.062;15.446;2023-05-23T01:47:13;6.43;;;5.70;;
19278;SDS011;9773;47.062;15.446;2023-05-23T01:49:39;5.53;;;5.13;;
19278;SDS011;9773;47.062;15.446;2023-05-23T01:52:08;7.40;;;5.43;;
19278;SDS011;9773;47.062;15.446;2023-05-23T01:54:36;6.20;;;5.60;;
19278;SDS011;9773;47.062;15.446;2023-05-23T01:57:06;6.23;;;5.63;;
19278;SDS011;9773;47.062;15.446;2023-05-23T01:59:32;5.63;;;5.13;;
19278;SDS011;9773;47.062;15.446;2023-05-23T02:01:58;6.33;;;5.47;;
19278;SDS011;9773;47.062;15.446;2023-05-23T02:04:24;6.30;;;5.80;;
19278;SDS011;9773;47.062;15.446;2023-05-23T02:06:52;7.60;;;5.57;;
19278;SDS011;9773;47.062;15.446;2023-05-23T02:09:19;6.10;;;5.60;;
19278;SDS011;9773;47.062;15.446;2023-05-23T02:11:45;6.07;;;5.33;;
19278;SDS011;9773;47.062;15.446;2023-05-23T02:14:11;6.07;;;5.47;;
19278;SDS011;9773;47.062;15.446;2023-05-23T02:16:37;6.33;;;5.73;;
19278;SDS011;9773;47.062;15.446;2023-05-23T02:19:02;5.93;;;5.40;;
19278;SDS011;9773;47.062;15.446;2023-05-23T02:21:28;6.10;;;5.60;;
19278;SDS011;9773;47.062;15.446;2023-05-23T02:23:55;6.90;;;5.77;;
19278;SDS011;9773;47.062;15.446;2023-05-23T02:26:21;6.13;;;5.53;;
19278;SDS011;9773;47.062;15.446;2023-05-23T02:28:47;6.50;;;5.90;;
19278;SDS011;9773;47.062;15.446;2023-05-23T02:31:13;7.77;;;5.57;;
19278;SDS011;9773;47.062;15.446;2023-05-23T02:33:38;5.93;;;5.47;;
19278;SDS011;9773;47.062;15.446;2023-05-23T02:36:05;6.17;;;5.60;;
19278;SDS011;9773;47.062;15.446;2023-05-23T02:38:32;6.03;;;5.43;;
19278;SDS011;9773;47.062;15.446;2023-05-23T02:40:57;7.50;;;6.13;;
19278;SDS011;9773;47.062;15.446;2023-05-23T02:43:24;8.50;;;6.70;;
19278;SDS011;9773;47.062;15.446;2023-05-23T02:45:50;6.30;;;5.80;;
19278;SDS011;9773;47.062;15.446;2023-05-23T02:48:16;7.87;;;6.20;;
19278;SDS011;9773;47.062;15.446;2023-05-23T02:50:43;6.10;;;5.57;;
19278;SDS011;9773;47.062;15.446;2023-05-23T02:53:09;6.37;;;5.87;;
19278;SDS011;9773;47.062;15.446;2023-05-23T02:55:34;7.10;;;6.10;;
19278;SDS011;9773;47.062;15.446;2023-05-23T02:58:00;6.60;;;6.00;;
19278;SDS011;9773;47.062;15.446;2023-05-23T03:00:29;6.33;;;5.60;;
19278;SDS011;9773;47.062;15.446;2023-05-23T03:02:58;6.00;;;5.33;;
19278;SDS011;9773;47.062;15.446;2023-05-23T03:05:24;6.43;;;5.93;;
19278;SDS011;9773;47.062;15.446;2023-05-23T03:07:50;6.43;;;5.87;;
19278;SDS011;9773;47.062;15.446;2023-05-23T03:10:20;7.83;;;6.07;;
19278;SDS011;9773;47.062;15.446;2023-05-23T03:12:46;6.47;;;5.97;;
19278;SDS011;9773;47.062;15.446;2023-05-23T03:15:11;6.20;;;5.70;;
19278;SDS011;9773;47.062;15.446;2023-05-23T03:17:37;8.20;;;6.43;;
19278;SDS011;9773;47.062;15.446;2023-05-23T03:20:03;6.87;;;6.27;;
19278;SDS011;9773;47.062;15.446;2023-05-23T03:22:33;7.57;;;6.87;;
19278;SDS011;9773;47.062;15.446;2023-05-23T03:24:59;7.07;;;6.37;;
19278;SDS011;9773;47.062;15.446;2023-05-23T03:27:25;7.37;;;6.30;;
19278;SDS011;9773;47.062;15.446;2023-05-23T03:29:51;7.67;;;6.90;;
19278;SDS011;9773;47.062;15.446;2023-05-23T03:32:17;7.30;;;6.60;;
19278;SDS011;9773;47.062;15.446;2023-05-23T03:34:43;8.53;;;6.60;;
19278;SDS011;9773;47.062;15.446;2023-05-23T03:37:08;7.87;;;5.60;;
19278;SDS011;9773;47.062;15.446;2023-05-23T03:39:35;8.13;;;7.03;;
19278;SDS011;9773;47.062;15.446;2023-05-23T03:42:01;12.33;;;6.93;;
19278;SDS011;9773;47.062;15.446;2023-05-23T03:44:29;7.77;;;6.70;;
19278;SDS011;9773;47.062;15.446;2023-05-23T03:46:55;7.73;;;6.50;;
19278;SDS011;9773;47.062;15.446;2023-05-23T03:49:20;7.67;;;6.87;;
19278;SDS011;9773;47.062;15.446;2023-05-23T03:51:46;8.90;;;7.13;;
19278;SDS011;9773;47.062;15.446;2023-05-23T03:54:12;7.17;;;6.47;;
19278;SDS011;9773;47.062;15.446;2023-05-23T03:56:38;7.20;;;6.50;;
19278;SDS011;9773;47.062;15.446;2023-05-23T03:59:04;8.07;;;7.10;;
19278;SDS011;9773;47.062;15.446;2023-05-23T04:01:31;7.00;;;6.30;;
19278;SDS011;9773;47.062;15.446;2023-05-23T04:03:57;8.00;;;6.20;;
19278;SDS011;9773;47.062;15.446;2023-05-23T04:06:24;7.37;;;6.50;;
19278;SDS011;9773;47.062;15.446;2023-05-23T04:08:50;7.67;;;6.67;;
19278;SDS011;9773;47.062;15.446;2023-05-23T04:11:16;6.87;;;6.23;;
19278;SDS011;9773;47.062;15.446;2023-05-23T04:13:41;7.13;;;5.90;;
19278;SDS011;9773;47.062;15.446;2023-05-23T04:16:09;6.57;;;5.63;;
19278;SDS011;9773;47.062;15.446;2023-05-23T04:18:36;6.63;;;5.97;;
19278;SDS011;9773;47.062;15.446;2023-05-23T04:21:03;7.10;;;6.43;;
19278;SDS011;9773;47.062;15.446;2023-05-23T04:23:29;7.17;;;6.47;;
19278;SDS011;9773;47.062;15.446;2023-05-23T04:25:55;7.90;;;5.93;;
19278;SDS011;9773;47.062;15.446;2023-05-23T04:28:21;8.17;;;6.73;;
19278;SDS011;9773;47.062;15.446;2023-05-23T04:30:49;8.47;;;6.60;;
19278;SDS011;9773;47.062;15.446;2023-05-23T04:33:16;9.40;;;6.30;;
19278;SDS011;9773;47.062;15.446;2023-05-23T04:35:43;7.47;;;6.77;;
19278;SDS011;9773;47.062;15.446;2023-05-23T04:38:11;6.83;;;6.10;;
19278;SDS011;9773;47.062;15.446;2023-05-23T04:40:37;6.40;;;5.90;;
19278;SDS011;9773;47.062;15.446;2023-05-23T04:43:03;8.23;;;6.43;;
19278;SDS011;9773;47.062;15.446;2023-05-23T04:45:30;8.00;;;6.63;;
19278;SDS011;9773;47.062;15.446;2023-05-23T04:47:57;7.53;;;6.83;;
19278;SDS011;9773;47.062;15.446;2023-05-23T04:50:23;7.10;;;6.37;;
19278;SDS011;9773;47.062;15.446;2023-05-23T04:52:49;7.53;;;6.30;;
19278;SDS011;9773;47.062;15.446;2023-05-23T04:55:15;10.50;;;6.93;;
19278;SDS011;9773;47.062;15.446;2023-05-23T04:57:41;9.60;;;6.80;;
19278;SDS011;9773;47.062;15.446;2023-05-23T05:00:07;7.87;;;6.50;;
19278;SDS011;9773;47.062;15.446;2023-05-23T05:02:37;7.00;;;6.37;;
19278;SDS011;9773;47.062;15.446;2023-05-23T05:05:04;7.23;;;6.53;;
19278;SDS011;9773;47.062;15.446;2023-05-23T05:07:30;8.43;;;6.87;;
19278;SDS011;9773;47.062;15.446;2023-05-23T05:09:56;7.63;;;6.63;;
19278;SDS011;9773;47.062;15.446;2023-05-23T05:12:21;6.83;;;6.17;;
19278;SDS011;9773;47.062;15.446;2023-05-23T05:14:48;6.80;;;6.20;;
19278;SDS011;9773;47.062;15.446;2023-05-23T05:17:14;7.03;;;6.40;;
19278;SDS011;9773;47.062;15.446;2023-05-23T05:19:39;7.73;;;6.70;;
19278;SDS011;9773;47.062;15.446;2023-05-23T05:22:05;9.33;;;6.20;;
19278;SDS011;9773;47.062;15.446;2023-05-23T05:24:32;11.27;;;6.37;;
19278;SDS011;9773;47.062;15.446;2023-05-23T05:26:57;11.27;;;6.57;;
19278;SDS011;9773;47.062;15.446;2023-05-23T05:29:24;7.13;;;6.43;;
19278;SDS011;9773;47.062;15.446;2023-05-23T05:31:50;8.23;;;6.33;;
19278;SDS011;9773;47.062;15.446;2023-05-23T05:34:17;6.33;;;5.73;;
19278;SDS011;9773;47.062;15.446;2023-05-23T05:36:44;7.33;;;6.50;;
19278;SDS011;9773;47.062;15.446;2023-05-23T05:39:13;7.50;;;6.13;;
19278;SDS011;9773;47.062;15.446;2023-05-23T05:41:39;8.03;;;6.13;;
19278;SDS011;9773;47.062;15.446;2023-05-23T05:44:05;10.30;;;7.50;;
19278;SDS011;9773;47.062;15.446;2023-05-23T05:46:31;9.97;;;7.13;;
19278;SDS011;9773;47.062;15.446;2023-05-23T05:48:57;7.17;;;6.13;;
19278;SDS011;9773;47.062;15.446;2023-05-23T05:51:23;7.67;;;6.17;;
19278;SDS011;9773;47.062;15.446;2023-05-23T05:53:48;6.87;;;6.17;;
19278;SDS011;9773;47.062;15.446;2023-05-23T05:56:14;6.73;;;6.03;;
19278;SDS011;9773;47.062;15.446;2023-05-23T05:58:40;7.57;;;6.07;;
19278;SDS011;9773;47.062;15.446;2023-05-23T06:01:06;5.77;;;5.27;;
19278;SDS011;9773;47.062;15.446;2023-05-23T06:03:33;6.63;;;5.60;;
19278;SDS011;9773;47.062;15.446;2023-05-23T06:05:59;6.43;;;5.83;;
19278;SDS011;9773;47.062;15.446;2023-05-23T06:08:25;6.70;;;5.93;;
19278;SDS011;9773;47.062;15.446;2023-05-23T06:10:50;7.00;;;6.27;;
19278;SDS011;9773;47.062;15.446;2023-05-23T06:13:16;6.07;;;5.57;;
19278;SDS011;9773;47.062;15.446;2023-05-23T06:15:42;6.27;;;5.67;;
19278;SDS011;9773;47.062;15.446;2023-05-23T06:18:08;8.90;;;6.50;;
19278;SDS011;9773;47.062;15.446;2023-05-23T06:20:35;7.10;;;5.90;;
19278;SDS011;9773;47.062;15.446;2023-05-23T06:23:00;8.00;;;5.47;;
19278;SDS011;9773;47.062;15.446;2023-05-23T06:25:29;6.27;;;5.67;;
19278;SDS011;9773;47.062;15.446;2023-05-23T06:27:55;7.73;;;5.70;;
19278;SDS011;9773;47.062;15.446;2023-05-23T06:30:21;6.13;;;5.53;;
19278;SDS011;9773;47.062;15.446;2023-05-23T06:32:54;5.80;;;5.30;;
19278;SDS011;9773;47.062;15.446;2023-05-23T06:35:20;5.87;;;5.23;;
19278;SDS011;9773;47.062;15.446;2023-05-23T06:37:48;6.13;;;5.43;;
19278;SDS011;9773;47.062;15.446;2023-05-23T06:40:14;7.07;;;5.37;;
19278;SDS011;9773;47.062;15.446;2023-05-23T06:42:40;7.30;;;5.97;;
19278;SDS011;9773;47.062;15.446;2023-05-23T06:45:06;6.50;;;5.90;;
19278;SDS011;9773;47.062;15.446;2023-05-23T06:47:33;7.80;;;5.83;;
19278;SDS011;9773;47.062;15.446;2023-05-23T06:49:58;6.10;;;5.50;;
19278;SDS011;9773;47.062;15.446;2023-05-23T06:52:24;5.80;;;5.23;;
19278;SDS011;9773;47.062;15.446;2023-05-23T06:54:50;5.63;;;5.13;;
19278;SDS011;9773;47.062;15.446;2023-05-23T06:57:15;6.50;;;5.67;;
19278;SDS011;9773;47.062;15.446;2023-05-23T06:59:41;5.53;;;5.03;;
19278;SDS011;9773;47.062;15.446;2023-05-23T07:02:07;6.23;;;4.97;;
19278;SDS011;9773;47.062;15.446;2023-05-23T07:04:32;6.90;;;5.30;;
19278;SDS011;9773;47.062;15.446;2023-05-23T07:06:58;5.83;;;5.30;;
19278;SDS011;9773;47.062;15.446;2023-05-23T07:09:24;6.63;;;5.50;;
19278;SDS011;9773;47.062;15.446;2023-05-23T07:11:50;7.43;;;5.50;;
19278;SDS011;9773;47.062;15.446;2023-05-23T07:14:15;5.57;;;5.07;;
19278;SDS011;9773;47.062;15.446;2023-05-23T07:16:41;5.80;;;5.20;;
19278;SDS011;9773;47.062;15.446;2023-05-23T07:19:07;5.83;;;5.27;;
19278;SDS011;9773;47.062;15.446;2023-05-23T07:21:33;6.80;;;5.20;;
19278;SDS011;9773;47.062;15.446;2023-05-23T07:23:58;9.40;;;6.93;;
19278;SDS011;9773;47.062;15.446;2023-05-23T07:26:24;9.33;;;6.37;;
19278;SDS011;9773;47.062;15.446;2023-05-23T07:28:51;8.93;;;6.93;;
19278;SDS011;9773;47.062;15.446;2023-05-23T07:31:17;7.80;;;6.80;;
19278;SDS011;9773;47.062;15.446;2023-05-23T07:33:43;8.13;;;7.20;;
19278;SDS011;9773;47.062;15.446;2023-05-23T07:36:09;10.50;;;7.77;;
19278;SDS011;9773;47.062;15.446;2023-05-23T07:38:36;8.63;;;7.20;;
19278;SDS011;9773;47.062;15.446;2023-05-23T07:41:02;8.52;;;6.53;;
19278;SDS011;9773;47.062;15.446;2023-05-23T07:43:27;10.43;;;7.28;;
19278;SDS011;9773;47.062;15.446;2023-05-23T07:45:53;9.35;;;7.63;;
19278;SDS011;9773;47.062;15.446;2023-05-23T07:48:19;11.00;;;7.03;;
19278;SDS011;9773;47.062;15.446;2023-05-23T07:50:45;11.40;;;7.00;;
19278;SDS011;9773;47.062;15.446;2023-05-23T07:53:11;8.80;;;6.10;;
19278;SDS011;9773;47.062;15.446;2023-05-23T07:55:37;11.00;;;6.53;;
19278;SDS011;9773;47.062;15.446;2023-05-23T07:58:05;6.93;;;6.07;;
19278;SDS011;9773;47.062;15.446;2023-05-23T08:00:31;7.43;;;6.10;;
19278;SDS011;9773;47.062;15.446;2023-05-23T08:02:57;10.18;;;7.07;;
19278;SDS011;9773;47.062;15.446;2023-05-23T08:05:23;9.68;;;6.80;;
19278;SDS011;9773;47.062;15.446;2023-05-23T08:07:49;6.13;;;5.47;;
19278;SDS011;9773;47.062;15.446;2023-05-23T08:10:15;9.07;;;6.18;;
19278;SDS011;9773;47.062;15.446;2023-05-23T08:12:40;6.47;;;5.88;;
19278;SDS011;9773;47.062;15.446;2023-05-23T08:15:06;6.53;;;5.90;;
19278;SDS011;9773;47.062;15.446;2023-05-23T08:17:33;11.60;;;6.15;;
19278;SDS011;9773;47.062;15.446;2023-05-23T08:19:58;8.60;;;7.40;;
19278;SDS011;9773;47.062;15.446;2023-05-23T08:22:25;7.68;;;6.32;;
19278;SDS011;9773;47.062;15.446;2023-05-23T08:24:51;8.85;;;6.03;;
19278;SDS011;9773;47.062;15.446;2023-05-23T08:27:16;11.25;;;5.90;;
19278;SDS011;9773;47.062;15.446;2023-05-23T08:29:42;7.25;;;5.93;;
19278;SDS011;9773;47.062;15.446;2023-05-23T08:32:08;5.97;;;5.53;;
19278;SDS011;9773;47.062;15.446;2023-05-23T08:34:34;6.78;;;5.93;;
19278;SDS011;9773;47.062;15.446;2023-05-23T08:36:59;7.00;;;6.20;;
19278;SDS011;9773;47.062;15.446;2023-05-23T08:39:25;8.55;;;6.28;;
19278;SDS011;9773;47.062;15.446;2023-05-23T08:41:51;7.80;;;6.38;;
19278;SDS011;9773;47.062;15.446;2023-05-23T08:44:16;7.45;;;6.45;;
19278;SDS011;9773;47.062;15.446;2023-05-23T08:46:45;7.25;;;6.35;;
19278;SDS011;9773;47.062;15.446;2023-05-23T08:49:13;6.70;;;5.97;;
19278;SDS011;9773;47.062;15.446;2023-05-23T08:51:42;6.47;;;5.88;;
19278;SDS011;9773;47.062;15.446;2023-05-23T08:54:08;6.28;;;5.60;;
19278;SDS011;9773;47.062;15.446;2023-05-23T08:56:39;6.72;;;5.60;;
19278;SDS011;9773;47.062;15.446;2023-05-23T08:59:06;6.85;;;6.15;;
19278;SDS011;9773;47.062;15.446;2023-05-23T09:01:33;6.28;;;5.70;;
19278;SDS011;9773;47.062;15.446;2023-05-23T09:04:00;7.60;;;6.00;;
19278;SDS011;9773;47.062;15.446;2023-05-23T09:06:29;8.05;;;6.00;;
19278;SDS011;9773;47.062;15.446;2023-05-23T09:08:56;6.57;;;5.97;;
19278;SDS011;9773;47.062;15.446;2023-05-23T09:11:22;5.97;;;5.55;;
19278;SDS011;9773;47.062;15.446;2023-05-23T09:13:49;6.78;;;5.47;;
19278;SDS011;9773;47.062;15.446;2023-05-23T09:16:14;6.07;;;5.40;;
19278;SDS011;9773;47.062;15.446;2023-05-23T09:18:44;6.20;;;5.70;;
19278;SDS011;9773;47.062;15.446;2023-05-23T09:21:11;7.00;;;5.90;;
19278;SDS011;9773;47.062;15.446;2023-05-23T09:23:38;6.65;;;5.25;;
19278;SDS011;9773;47.062;15.446;2023-05-23T09:26:05;7.25;;;5.80;;
19278;SDS011;9773;47.062;15.446;2023-05-23T09:28:35;6.80;;;5.70;;
19278;SDS011;9773;47.062;15.446;2023-05-23T09:31:06;6.15;;;5.65;;
19278;SDS011;9773;47.062;15.446;2023-05-23T09:36:09;5.85;;;5.40;;
19278;SDS011;9773;47.062;15.446;2023-05-23T09:38:42;6.70;;;6.05;;
19278;SDS011;9773;47.062;15.446;2023-05-23T09:41:10;7.78;;;6.07;;
19278;SDS011;9773;47.062;15.446;2023-05-23T09:43:58;5.97;;;5.50;;
19278;SDS011;9773;47.062;15.446;2023-05-23T09:46:26;7.95;;;5.97;;
19278;SDS011;9773;47.062;15.446;2023-05-23T09:48:52;6.07;;;5.57;;
19278;SDS011;9773;47.062;15.446;2023-05-23T09:51:20;6.03;;;5.43;;
19278;SDS011;9773;47.062;15.446;2023-05-23T09:53:48;6.15;;;5.50;;
19278;SDS011;9773;47.062;15.446;2023-05-23T09:56:18;5.80;;;5.40;;
19278;SDS011;9773;47.062;15.446;2023-05-23T09:58:46;6.10;;;5.60;;
19278;SDS011;9773;47.062;15.446;2023-05-23T10:01:14;6.00;;;5.40;;
19278;SDS011;9773;47.062;15.446;2023-05-23T10:03:44;5.93;;;5.43;;
19278;SDS011;9773;47.062;15.446;2023-05-23T10:09:08;7.18;;;5.65;;
19278;SDS011;9773;47.062;15.446;2023-05-23T10:11:55;6.45;;;5.75;;
19278;SDS011;9773;47.062;15.446;2023-05-23T10:14:51;6.28;;;5.63;;
19278;SDS011;9773;47.062;15.446;2023-05-23T10:20:07;6.30;;;5.70;;
19278;SDS011;9773;47.062;15.446;2023-05-23T10:22:36;5.78;;;5.28;;
19278;SDS011;9773;47.062;15.446;2023-05-23T10:25:03;6.20;;;5.60;;
19278;SDS011;9773;47.062;15.446;2023-05-23T10:27:38;5.68;;;5.22;;
19278;SDS011;9773;47.062;15.446;2023-05-23T10:30:06;6.22;;;5.63;;
19278;SDS011;9773;47.062;15.446;2023-05-23T10:32:32;5.88;;;5.38;;
19278;SDS011;9773;47.062;15.446;2023-05-23T10:35:01;5.70;;;5.30;;
19278;SDS011;9773;47.062;15.446;2023-05-23T10:37:52;6.53;;;5.30;;
19278;SDS011;9773;47.062;15.446;2023-05-23T10:40:43;5.57;;;5.18;;
19278;SDS011;9773;47.062;15.446;2023-05-23T10:43:32;6.32;;;5.72;;
19278;SDS011;9773;47.062;15.446;2023-05-23T10:46:08;7.05;;;5.72;;
19278;SDS011;9773;47.062;15.446;2023-05-23T10:48:42;7.55;;;5.95;;
19278;SDS011;9773;47.062;15.446;2023-05-23T10:51:09;5.75;;;5.25;;
19278;SDS011;9773;47.062;15.446;2023-05-23T10:53:37;6.38;;;5.78;;
19278;SDS011;9773;47.062;15.446;2023-05-23T10:56:09;11.65;;;5.90;;
19278;SDS011;9773;47.062;15.446;2023-05-23T10:58:42;6.18;;;5.57;;
19278;SDS011;9773;47.062;15.446;2023-05-23T11:01:08;6.47;;;5.80;;
19278;SDS011;9773;47.062;15.446;2023-05-23T11:06:45;6.70;;;5.25;;
19278;SDS011;9773;47.062;15.446;2023-05-23T11:09:11;5.93;;;5.53;;
19278;SDS011;9773;47.062;15.446;2023-05-23T11:14:19;5.95;;;5.47;;
19278;SDS011;9773;47.062;15.446;2023-05-23T11:16:55;5.88;;;5.30;;
19278;SDS011;9773;47.062;15.446;2023-05-23T11:19:22;5.65;;;5.15;;
19278;SDS011;9773;47.062;15.446;2023-05-23T11:22:08;5.63;;;5.05;;
19278;SDS011;9773;47.062;15.446;2023-05-23T11:24:50;5.95;;;5.45;;
19278;SDS011;9773;47.062;15.446;2023-05-23T11:27:17;7.85;;;5.68;;
19278;SDS011;9773;47.062;15.446;2023-05-23T11:30:06;5.68;;;5.18;;
19278;SDS011;9773;47.062;15.446;2023-05-23T11:32:40;5.55;;;5.15;;
19278;SDS011;9773;47.062;15.446;2023-05-23T11:35:07;5.53;;;5.07;;
19278;SDS011;9773;47.062;15.446;2023-05-23T11:37:35;6.80;;;6.20;;
19278;SDS011;9773;47.062;15.446;2023-05-23T11:42:53;5.85;;;5.13;;
19278;SDS011;9773;47.062;15.446;2023-05-23T11:45:23;4.82;;;4.43;;
19278;SDS011;9773;47.062;15.446;2023-05-23T11:47:50;6.10;;;4.35;;
19278;SDS011;9773;47.062;15.446;2023-05-23T11:50:17;5.40;;;4.22;;
19278;SDS011;9773;47.062;15.446;2023-05-23T11:52:45;4.13;;;3.83;;
19278;SDS011;9773;47.062;15.446;2023-05-23T11:55:16;3.30;;;3.10;;
19278;SDS011;9773;47.062;15.446;2023-05-23T11:57:46;4.33;;;3.70;;
19278;SDS011;9773;47.062;15.446;2023-05-23T12:00:13;4.20;;;3.80;;
19278;SDS011;9773;47.062;15.446;2023-05-23T12:02:43;3.80;;;3.57;;
19278;SDS011;9773;47.062;15.446;2023-05-23T12:05:10;3.27;;;3.07;;
19278;SDS011;9773;47.062;15.446;2023-05-23T12:07:39;3.80;;;3.50;;
19278;SDS011;9773;47.062;15.446;2023-05-23T12:10:06;4.70;;;4.17;;
19278;SDS011;9773;47.062;15.446;2023-05-23T12:12:33;3.50;;;3.20;;
19278;SDS011;9773;47.062;15.446;2023-05-23T12:14:59;3.33;;;3.00;;
19278;SDS011;9773;47.062;15.446;2023-05-23T12:17:26;3.63;;;2.73;;
19278;SDS011;9773;47.062;15.446;2023-05-23T12:19:51;3.93;;;3.63;;
19278;SDS011;9773;47.062;15.446;2023-05-23T12:22:21;3.90;;;3.60;;
19278;SDS011;9773;47.062;15.446;2023-05-23T12:24:54;7.70;;;3.70;;
19278;SDS011;9773;47.062;15.446;2023-05-23T12:27:28;3.97;;;3.67;;
19278;SDS011;9773;47.062;15.446;2023-05-23T12:30:05;4.90;;;3.97;;
19278;SDS011;9773;47.062;15.446;2023-05-23T12:32:43;4.17;;;3.87;;
19278;SDS011;9773;47.062;15.446;2023-05-23T12:35:11;4.30;;;4.00;;
19278;SDS011;9773;47.062;15.446;2023-05-23T12:37:40;4.70;;;4.20;;
19278;SDS011;9773;47.062;15.446;2023-05-23T12:40:18;9.97;;;6.47;;
19278;SDS011;9773;47.062;15.446;2023-05-23T12:45:21;5.53;;;4.87;;
19278;SDS011;9773;47.062;15.446;2023-05-23T12:47:48;5.27;;;4.77;;
19278;SDS011;9773;47.062;15.446;2023-05-23T12:50:15;6.03;;;4.80;;
19278;SDS011;9773;47.062;15.446;2023-05-23T12:52:40;6.17;;;4.87;;
19278;SDS011;9773;47.062;15.446;2023-05-23T12:55:07;5.00;;;4.47;;
19278;SDS011;9773;47.062;15.446;2023-05-23T12:57:33;4.80;;;4.30;;
19278;SDS011;9773;47.062;15.446;2023-05-23T12:59:59;5.73;;;4.60;;
19278;SDS011;9773;47.062;15.446;2023-05-23T13:02:28;5.50;;;4.50;;
19278;SDS011;9773;47.062;15.446;2023-05-23T13:04:54;6.70;;;4.53;;
19278;SDS011;9773;47.062;15.446;2023-05-23T13:07:20;33.97;;;19.17;;
19278;SDS011;9773;47.062;15.446;2023-05-23T13:09:46;39.80;;;20.83;;
19278;SDS011;9773;47.062;15.446;2023-05-23T13:12:12;10.03;;;7.07;;
19278;SDS011;9773;47.062;15.446;2023-05-23T13:14:39;7.70;;;6.20;;
19278;SDS011;9773;47.062;15.446;2023-05-23T13:17:05;5.47;;;4.63;;
19278;SDS011;9773;47.062;15.446;2023-05-23T13:19:31;6.73;;;5.13;;
19278;SDS011;9773;47.062;15.446;2023-05-23T13:21:57;5.47;;;4.93;;
19278;SDS011;9773;47.062;15.446;2023-05-23T13:24:22;6.33;;;5.40;;
19278;SDS011;9773;47.062;15.446;2023-05-23T13:26:48;6.57;;;5.17;;
19278;SDS011;9773;47.062;15.446;2023-05-23T13:29:14;5.80;;;5.30;;
19278;SDS011;9773;47.062;15.446;2023-05-23T13:31:40;5.83;;;5.37;;
19278;SDS011;9773;47.062;15.446;2023-05-23T13:34:06;7.53;;;5.30;;
19278;SDS011;9773;47.062;15.446;2023-05-23T13:36:31;6.63;;;5.80;;
19278;SDS011;9773;47.062;15.446;2023-05-23T13:38:59;6.00;;;5.37;;
19278;SDS011;9773;47.062;15.446;2023-05-23T13:41:25;6.23;;;5.63;;
19278;SDS011;9773;47.062;15.446;2023-05-23T13:43:51;7.30;;;5.90;;
19278;SDS011;9773;47.062;15.446;2023-05-23T13:46:17;7.50;;;5.90;;
19278;SDS011;9773;47.062;15.446;2023-05-23T13:48:43;7.37;;;6.43;;
19278;SDS011;9773;47.062;15.446;2023-05-23T13:51:08;7.47;;;6.23;;
19278;SDS011;9773;47.062;15.446;2023-05-23T13:53:34;7.13;;;5.77;;
19278;SDS011;9773;47.062;15.446;2023-05-23T13:56:00;9.77;;;5.93;;
19278;SDS011;9773;47.062;15.446;2023-05-23T13:58:27;8.47;;;5.97;;
19278;SDS011;9773;47.062;15.446;2023-05-23T14:00:53;5.90;;;5.40;;
19278;SDS011;9773;47.062;15.446;2023-05-23T14:03:19;6.60;;;5.50;;
19278;SDS011;9773;47.062;15.446;2023-05-23T14:05:45;6.50;;;5.90;;
19278;SDS011;9773;47.062;15.446;2023-05-23T14:08:11;9.97;;;6.23;;
19278;SDS011;9773;47.062;15.446;2023-05-23T14:10:38;8.30;;;6.07;;
19278;SDS011;9773;47.062;15.446;2023-05-23T14:13:06;10.77;;;6.83;;
19278;SDS011;9773;47.062;15.446;2023-05-23T14:15:32;6.83;;;6.13;;
19278;SDS011;9773;47.062;15.446;2023-05-23T14:17:58;7.07;;;6.37;;
19278;SDS011;9773;47.062;15.446;2023-05-23T14:20:24;7.20;;;6.60;;
19278;SDS011;9773;47.062;15.446;2023-05-23T14:22:50;6.30;;;5.70;;
19278;SDS011;9773;47.062;15.446;2023-05-23T14:25:16;7.73;;;6.40;;
19278;SDS011;9773;47.062;15.446;2023-05-23T14:27:42;7.53;;;6.10;;
19278;SDS011;9773;47.062;15.446;2023-05-23T14:30:08;7.37;;;6.57;;
19278;SDS011;9773;47.062;15.446;2023-05-23T14:32:35;7.30;;;6.40;;
19278;SDS011;9773;47.062;15.446;2023-05-23T14:35:06;8.13;;;6.67;;
19278;SDS011;9773;47.062;15.446;2023-05-23T14:37:34;8.23;;;7.00;;
19278;SDS011;9773;47.062;15.446;2023-05-23T14:40:00;7.10;;;6.40;;
19278;SDS011;9773;47.062;15.446;2023-05-23T14:42:27;7.73;;;6.93;;
19278;SDS011;9773;47.062;15.446;2023-05-23T14:44:52;8.63;;;7.17;;
19278;SDS011;9773;47.062;15.446;2023-05-23T14:47:18;6.93;;;6.23;;
19278;SDS011;9773;47.062;15.446;2023-05-23T14:49:45;7.17;;;6.57;;
19278;SDS011;9773;47.062;15.446;2023-05-23T14:52:11;7.70;;;7.00;;
19278;SDS011;9773;47.062;15.446;2023-05-23T14:54:37;7.00;;;6.40;;
19278;SDS011;9773;47.062;15.446;2023-05-23T14:57:07;7.60;;;6.90;;
19278;SDS011;9773;47.062;15.446;2023-05-23T14:59:34;8.17;;;7.27;;
19278;SDS011;9773;47.062;15.446;2023-05-23T15:02:01;6.60;;;6.00;;
19278;SDS011;9773;47.062;15.446;2023-05-23T15:04:27;7.00;;;6.40;;
19278;SDS011;9773;47.062;15.446;2023-05-23T15:06:52;8.07;;;6.20;;
19278;SDS011;9773;47.062;15.446;2023-05-23T15:09:18;7.30;;;6.10;;
19278;SDS011;9773;47.062;15.446;2023-05-23T15:11:44;6.67;;;5.30;;
19278;SDS011;9773;47.062;15.446;2023-05-23T15:14:13;6.90;;;6.20;;
19278;SDS011;9773;47.062;15.446;2023-05-23T15:16:40;7.53;;;5.83;;